Time;durP1;ratioP1;P1;durP2;ratioP2;P2;SDS_P1;SDS_P2;PMS_P1;PMS_P2;Temp;Humidity;BMP_temperature;BMP_pressure;BME280_temperature;BME280_humidity;BME280_pressure;Samples;Min_cycle;Max_cycle;Signal;HPM_P1;HPM_P2
2022/12/19 00:01:17;;;;;;;8.98;4.43;;;;;;;;;;5024270;28;20028;-76
2022/12/19 00:03:47;;;;;;;9.60;4.95;;;;;;;;;;5021086;28;20021;-77
2022/12/19 00:06:13;;;;;;;10.98;4.70;;;;;;;;;;5026060;28;20030;-76
2022/12/19 00:08:43;;;;;;;11.85;4.35;;;;;;;;;;5026226;28;20231;-77
2022/12/19 00:11:10;;;;;;;9.15;4.57;;;;;;;;;;5025224;28;20043;-76
2022/12/19 00:13:37;;;;;;;11.05;4.53;;;;;;;;;;5026148;28;20537;-77
2022/12/19 00:16:04;;;;;;;9.27;3.80;;;;;;;;;;5026185;28;20033;-77
2022/12/19 00:18:30;;;;;;;8.68;4.57;;;;;;;;;;5023988;28;20083;-77
2022/12/19 00:20:57;;;;;;;9.40;4.63;;;;;;;;;;5025460;28;20033;-76
2022/12/19 00:23:23;;;;;;;10.45;4.72;;;;;;;;;;5026101;28;21024;-77
2022/12/19 00:25:49;;;;;;;8.55;4.47;;;;;;;;;;5027073;28;20056;-76
2022/12/19 00:28:15;;;;;;;9.27;4.72;;;;;;;;;;5026436;28;20032;-76
2022/12/19 00:30:41;;;;;;;9.05;4.38;;;;;;;;;;5027477;28;20042;-76
2022/12/19 00:33:07;;;;;;;8.65;4.32;;;;;;;;;;5029077;28;20041;-77
2022/12/19 00:35:33;;;;;;;10.13;4.80;;;;;;;;;;5028742;28;20472;-76
2022/12/19 00:37:59;;;;;;;11.70;4.60;;;;;;;;;;5025816;28;20059;-77
2022/12/19 00:40:25;;;;;;;11.10;4.50;;;;;;;;;;5030216;28;20056;-77
2022/12/19 00:42:50;;;;;;;8.18;4.57;;;;;;;;;;5029671;28;20075;-77
2022/12/19 00:45:16;;;;;;;8.40;4.28;;;;;;;;;;5029001;28;20033;-76
2022/12/19 00:47:42;;;;;;;10.45;5.03;;;;;;;;;;5028114;28;20100;-76
2022/12/19 00:50:09;;;;;;;9.07;4.63;;;;;;;;;;5029879;28;20034;-77
2022/12/19 00:52:34;;;;;;;8.02;4.22;;;;;;;;;;5028458;28;20132;-77
2022/12/19 00:55:00;;;;;;;7.45;4.10;;;;;;;;;;5024883;28;20083;-76
2022/12/19 00:57:26;;;;;;;7.07;3.83;;;;;;;;;;5027411;28;20104;-77
2022/12/19 00:59:53;;;;;;;9.85;4.60;;;;;;;;;;5028292;28;20107;-77
2022/12/19 01:02:19;;;;;;;8.55;4.18;;;;;;;;;;5026562;28;20164;-77
2022/12/19 01:04:45;;;;;;;9.75;4.22;;;;;;;;;;5029252;28;20053;-76
2022/12/19 01:07:10;;;;;;;7.90;3.95;;;;;;;;;;5025212;28;20108;-76
2022/12/19 01:09:36;;;;;;;7.25;4.10;;;;;;;;;;5027463;28;20068;-77
2022/12/19 01:14:49;;;;;;;8.75;4.22;;;;;;;;;;5028699;28;20321;-77
2022/12/19 01:17:15;;;;;;;9.85;4.00;;;;;;;;;;5027340;28;20022;-76
2022/12/19 01:19:41;;;;;;;7.63;4.03;;;;;;;;;;5029342;28;20471;-77
2022/12/19 01:22:07;;;;;;;9.32;4.32;;;;;;;;;;5027873;28;20033;-77
2022/12/19 01:24:33;;;;;;;8.93;3.95;;;;;;;;;;5028086;28;20075;-76
2022/12/19 01:26:59;;;;;;;8.30;3.90;;;;;;;;;;5029612;28;20026;-77
2022/12/19 01:29:25;;;;;;;9.75;4.45;;;;;;;;;;5026770;28;20400;-77
2022/12/19 01:31:51;;;;;;;9.20;3.80;;;;;;;;;;5027855;28;20094;-76
2022/12/19 01:34:17;;;;;;;6.45;3.58;;;;;;;;;;5026880;28;20033;-77
2022/12/19 01:36:43;;;;;;;8.57;3.72;;;;;;;;;;5029085;28;20249;-76
2022/12/19 01:39:08;;;;;;;8.52;4.30;;;;;;;;;;5025914;28;20071;-77
2022/12/19 01:41:35;;;;;;;8.10;3.85;;;;;;;;;;5027866;28;20040;-77
2022/12/19 01:44:03;;;;;;;12.30;4.38;;;;;;;;;;5025322;28;20025;-76
2022/12/19 01:46:36;;;;;;;9.32;4.07;;;;;;;;;;5027704;28;20451;-76
2022/12/19 01:49:04;;;;;;;7.80;4.40;;;;;;;;;;5028677;28;20033;-77
2022/12/19 01:51:41;;;;;;;8.07;3.70;;;;;;;;;;5028298;28;20392;-76
2022/12/19 01:54:09;;;;;;;7.50;3.67;;;;;;;;;;5025391;28;20396;-77
2022/12/19 01:56:38;;;;;;;9.40;4.50;;;;;;;;;;5026549;28;20465;-76
2022/12/19 01:59:06;;;;;;;8.52;3.67;;;;;;;;;;5026588;28;20582;-77
2022/12/19 02:01:32;;;;;;;7.95;4.10;;;;;;;;;;5027380;28;20037;-77
2022/12/19 02:03:59;;;;;;;6.80;3.95;;;;;;;;;;5027722;28;20040;-76
2022/12/19 02:06:26;;;;;;;8.15;3.55;;;;;;;;;;5026740;28;20132;-77
2022/12/19 02:08:55;;;;;;;9.00;3.75;;;;;;;;;;5026370;28;20500;-77
2022/12/19 02:11:21;;;;;;;11.07;3.97;;;;;;;;;;5025673;28;20416;-77
2022/12/19 02:13:47;;;;;;;9.98;3.95;;;;;;;;;;5027151;28;20021;-76
2022/12/19 02:16:25;;;;;;;9.05;3.47;;;;;;;;;;5026846;28;20083;-76
2022/12/19 02:19:02;;;;;;;7.03;3.78;;;;;;;;;;5022750;28;20028;-77
2022/12/19 02:21:35;;;;;;;11.02;4.30;;;;;;;;;;5026716;28;20049;-77
2022/12/19 02:24:01;;;;;;;8.45;3.92;;;;;;;;;;5028699;28;20123;-76
2022/12/19 02:26:45;;;;;;;9.60;4.00;;;;;;;;;;5027926;28;20037;-77
2022/12/19 02:29:23;;;;;;;8.30;4.10;;;;;;;;;;5025035;28;20029;-77
2022/12/19 02:31:58;;;;;;;8.88;3.78;;;;;;;;;;5026752;28;20071;-76
2022/12/19 02:34:24;;;;;;;7.90;3.75;;;;;;;;;;5026284;28;20033;-76
2022/12/19 02:36:54;;;;;;;6.70;3.38;;;;;;;;;;5027810;28;20631;-77
2022/12/19 02:39:25;;;;;;;7.80;4.28;;;;;;;;;;5026616;28;20383;-76
2022/12/19 02:41:55;;;;;;;8.65;3.78;;;;;;;;;;5026212;28;20568;-76
2022/12/19 02:44:32;;;;;;;10.18;4.93;;;;;;;;;;5028261;28;20037;-77
2022/12/19 02:47:00;;;;;;;9.02;3.63;;;;;;;;;;5026179;28;20075;-77
2022/12/19 02:49:28;;;;;;;6.45;3.35;;;;;;;;;;5021899;28;20030;-77
2022/12/19 02:51:54;;;;;;;7.05;3.63;;;;;;;;;;5024521;28;20024;-77
2022/12/19 02:54:20;;;;;;;7.43;3.88;;;;;;;;;;5030285;28;20104;-76
2022/12/19 02:56:52;;;;;;;11.82;3.97;;;;;;;;;;5029713;28;20491;-77
2022/12/19 02:59:25;;;;;;;8.00;3.75;;;;;;;;;;5025377;28;20083;-77
2022/12/19 03:01:55;;;;;;;6.68;3.88;;;;;;;;;;5024035;28;20037;-77
2022/12/19 03:04:45;;;;;;;8.27;4.13;;;;;;;;;;5025655;28;20033;-76
2022/12/19 03:07:20;;;;;;;7.25;3.88;;;;;;;;;;5026634;28;20058;-76
2022/12/19 03:09:50;;;;;;;9.73;4.13;;;;;;;;;;5024191;28;20037;-76
2022/12/19 03:12:21;;;;;;;8.55;3.83;;;;;;;;;;5030987;28;20060;-76
2022/12/19 03:14:48;;;;;;;7.17;3.83;;;;;;;;;;5027269;28;20035;-77
2022/12/19 03:17:14;;;;;;;10.02;4.40;;;;;;;;;;5026019;28;20777;-76
2022/12/19 03:19:40;;;;;;;7.20;3.75;;;;;;;;;;5027355;28;20039;-77
2022/12/19 03:22:06;;;;;;;7.88;4.00;;;;;;;;;;5022445;28;20029;-77
2022/12/19 03:24:33;;;;;;;8.40;3.83;;;;;;;;;;5028062;28;20033;-77
2022/12/19 03:27:02;;;;;;;6.38;3.65;;;;;;;;;;5026818;28;20369;-77
2022/12/19 03:29:31;;;;;;;6.90;3.83;;;;;;;;;;5022990;28;20104;-77
2022/12/19 03:31:59;;;;;;;7.10;3.50;;;;;;;;;;5023512;28;20619;-76
2022/12/19 03:34:29;;;;;;;7.97;4.22;;;;;;;;;;5024976;28;20281;-77
2022/12/19 03:36:57;;;;;;;6.78;3.72;;;;;;;;;;5025871;28;20065;-76
2022/12/19 03:39:25;;;;;;;5.32;3.28;;;;;;;;;;5017592;28;20029;-77
2022/12/19 03:44:37;;;;;;;11.43;4.55;;;;;;;;;;5025199;28;20120;-76
2022/12/19 03:47:08;;;;;;;8.30;4.13;;;;;;;;;;5025133;28;20056;-77
2022/12/19 03:49:34;;;;;;;7.85;4.43;;;;;;;;;;5024452;28;20056;-76
2022/12/19 03:52:10;;;;;;;8.15;4.13;;;;;;;;;;5022448;28;20400;-76
2022/12/19 03:54:39;;;;;;;9.05;4.18;;;;;;;;;;5022761;28;20451;-76
2022/12/19 03:57:16;;;;;;;7.10;3.60;;;;;;;;;;5024273;28;20036;-76
2022/12/19 03:59:48;;;;;;;9.60;4.32;;;;;;;;;;5026967;28;20040;-76
2022/12/19 04:02:15;;;;;;;9.88;4.65;;;;;;;;;;5024755;28;20113;-76
2022/12/19 04:04:43;;;;;;;10.18;4.30;;;;;;;;;;5027741;28;20431;-76
2022/12/19 04:07:10;;;;;;;7.70;4.15;;;;;;;;;;5029978;28;20025;-77
2022/12/19 04:09:37;;;;;;;7.53;4.13;;;;;;;;;;5028836;28;20044;-76
2022/12/19 04:12:06;;;;;;;8.68;3.97;;;;;;;;;;5033431;28;20095;-76
2022/12/19 04:14:36;;;;;;;9.80;4.60;;;;;;;;;;5029814;28;20056;-76
2022/12/19 04:17:21;;;;;;;8.15;4.18;;;;;;;;;;5029830;28;20036;-76
2022/12/19 04:19:54;;;;;;;11.07;4.68;;;;;;;;;;5026188;28;20024;-76
2022/12/19 04:22:23;;;;;;;8.25;4.18;;;;;;;;;;5029857;28;20022;-76
2022/12/19 04:24:50;;;;;;;9.63;4.45;;;;;;;;;;5031800;28;20029;-77
2022/12/19 04:27:20;;;;;;;8.77;4.45;;;;;;;;;;5030317;28;20107;-76
2022/12/19 04:29:46;;;;;;;9.32;4.45;;;;;;;;;;5030160;28;20053;-76
2022/12/19 04:32:12;;;;;;;6.60;3.58;;;;;;;;;;5028988;28;20025;-76
2022/12/19 04:34:39;;;;;;;7.60;3.72;;;;;;;;;;5028189;28;20499;-76
2022/12/19 04:37:05;;;;;;;8.68;3.92;;;;;;;;;;5028278;28;20475;-76
2022/12/19 04:39:31;;;;;;;8.60;4.18;;;;;;;;;;5026827;28;20025;-76
2022/12/19 04:41:57;;;;;;;8.98;4.45;;;;;;;;;;5029624;28;20037;-76
2022/12/19 04:44:23;;;;;;;9.77;4.50;;;;;;;;;;5028221;28;20108;-76
2022/12/19 04:46:49;;;;;;;10.45;4.43;;;;;;;;;;5027078;28;20071;-76
2022/12/19 04:49:15;;;;;;;9.40;4.25;;;;;;;;;;5028396;28;20022;-76
2022/12/19 04:51:41;;;;;;;10.02;4.32;;;;;;;;;;5027069;28;20033;-76
2022/12/19 04:54:07;;;;;;;11.35;4.35;;;;;;;;;;5029156;28;20720;-76
2022/12/19 04:56:35;;;;;;;9.35;4.60;;;;;;;;;;5030259;28;20026;-76
2022/12/19 04:59:01;;;;;;;8.30;4.55;;;;;;;;;;5027637;28;20070;-76
2022/12/19 05:01:27;;;;;;;9.40;4.05;;;;;;;;;;5027454;28;20029;-75
2022/12/19 05:03:53;;;;;;;9.48;4.30;;;;;;;;;;5026711;28;20026;-76
2022/12/19 05:06:19;;;;;;;7.75;4.25;;;;;;;;;;5026334;28;20033;-76
2022/12/19 05:08:45;;;;;;;9.65;4.55;;;;;;;;;;5029641;28;20030;-76
2022/12/19 05:11:12;;;;;;;10.85;4.55;;;;;;;;;;5029149;28;20574;-76
2022/12/19 05:13:38;;;;;;;8.48;4.38;;;;;;;;;;5025082;28;20037;-76
2022/12/19 05:16:08;;;;;;;8.90;4.32;;;;;;;;;;5027832;28;20026;-76
2022/12/19 05:18:35;;;;;;;9.57;4.15;;;;;;;;;;5028813;28;20025;-76
2022/12/19 05:21:01;;;;;;;7.97;3.90;;;;;;;;;;5028875;28;20029;-76
2022/12/19 05:23:27;;;;;;;10.48;3.70;;;;;;;;;;5031522;28;20257;-79
2022/12/19 05:25:53;;;;;;;7.60;4.32;;;;;;;;;;5026180;28;20033;-76
2022/12/19 05:28:19;;;;;;;8.02;4.32;;;;;;;;;;5027673;28;20029;-76
2022/12/19 05:30:45;;;;;;;11.23;4.30;;;;;;;;;;5027478;28;20041;-76
2022/12/19 05:33:11;;;;;;;8.82;4.28;;;;;;;;;;5028725;28;20040;-76
2022/12/19 05:35:37;;;;;;;8.65;4.18;;;;;;;;;;5027252;28;20025;-76
2022/12/19 05:38:03;;;;;;;9.30;3.95;;;;;;;;;;5031344;28;20033;-76
2022/12/19 05:40:29;;;;;;;9.23;4.43;;;;;;;;;;5025359;28;20021;-76
2022/12/19 05:42:55;;;;;;;9.35;4.40;;;;;;;;;;5023914;28;20064;-76
2022/12/19 05:45:21;;;;;;;9.40;4.13;;;;;;;;;;5025671;28;20025;-76
2022/12/19 05:47:47;;;;;;;8.60;4.32;;;;;;;;;;5028827;28;20365;-76
2022/12/19 05:50:14;;;;;;;8.70;4.13;;;;;;;;;;5027041;28;20037;-76
2022/12/19 05:52:40;;;;;;;10.85;4.65;;;;;;;;;;5035717;28;20718;-76
2022/12/19 05:55:07;;;;;;;10.43;3.90;;;;;;;;;;5027567;28;20472;-75
2022/12/19 05:57:33;;;;;;;6.97;3.88;;;;;;;;;;5028659;28;20141;-76
2022/12/19 05:59:59;;;;;;;7.50;4.50;;;;;;;;;;5028078;28;20120;-76
2022/12/19 06:02:25;;;;;;;10.77;4.30;;;;;;;;;;5026646;28;20025;-76
2022/12/19 06:04:51;;;;;;;7.72;4.20;;;;;;;;;;5029236;28;20063;-76
2022/12/19 06:07:17;;;;;;;10.75;4.18;;;;;;;;;;5027949;28;20029;-76
2022/12/19 06:09:43;;;;;;;7.20;4.22;;;;;;;;;;5028470;28;20539;-76
2022/12/19 06:12:09;;;;;;;7.68;4.03;;;;;;;;;;5026892;28;20124;-76
2022/12/19 06:14:35;;;;;;;8.38;3.70;;;;;;;;;;5027715;28;20033;-76
2022/12/19 06:17:01;;;;;;;7.85;4.20;;;;;;;;;;5028447;28;20101;-76
2022/12/19 06:19:29;;;;;;;9.45;4.43;;;;;;;;;;5027124;28;20034;-75
2022/12/19 06:21:55;;;;;;;9.70;4.45;;;;;;;;;;5026386;28;20044;-76
2022/12/19 06:24:21;;;;;;;10.88;4.53;;;;;;;;;;5027789;28;20026;-76
2022/12/19 06:26:47;;;;;;;9.60;3.80;;;;;;;;;;5032488;28;20036;-75
2022/12/19 06:29:13;;;;;;;8.45;4.22;;;;;;;;;;5027942;28;20021;-76
2022/12/19 06:31:39;;;;;;;8.82;4.43;;;;;;;;;;5027554;28;20037;-75
2022/12/19 06:34:05;;;;;;;7.53;4.50;;;;;;;;;;5028477;28;20075;-76
2022/12/19 06:36:31;;;;;;;8.63;3.90;;;;;;;;;;5029735;28;20033;-76
2022/12/19 06:38:57;;;;;;;8.00;3.88;;;;;;;;;;5028744;28;20142;-76
2022/12/19 06:44:09;;;;;;;9.02;4.63;;;;;;;;;;5028034;28;20036;-75
2022/12/19 06:46:36;;;;;;;7.70;3.83;;;;;;;;;;5033727;28;20026;-75
2022/12/19 06:49:02;;;;;;;6.93;3.30;;;;;;;;;;5027429;28;20446;-76
2022/12/19 06:51:28;;;;;;;7.43;3.95;;;;;;;;;;5033487;28;20033;-76
2022/12/19 06:53:54;;;;;;;8.75;4.10;;;;;;;;;;5025359;28;20465;-76
2022/12/19 06:56:20;;;;;;;7.85;3.85;;;;;;;;;;5030769;28;20028;-76
2022/12/19 06:58:47;;;;;;;8.75;4.25;;;;;;;;;;5025545;28;20052;-76
2022/12/19 07:01:17;;;;;;;9.45;4.35;;;;;;;;;;5026003;28;20116;-76
2022/12/19 07:03:43;;;;;;;10.13;4.82;;;;;;;;;;5028032;28;20033;-76
2022/12/19 07:06:09;;;;;;;7.70;3.95;;;;;;;;;;5036713;28;20033;-76
2022/12/19 07:08:35;;;;;;;9.75;4.35;;;;;;;;;;5026558;28;20022;-76
2022/12/19 07:11:01;;;;;;;9.00;4.18;;;;;;;;;;5025579;28;20029;-76
2022/12/19 07:13:27;;;;;;;8.80;4.05;;;;;;;;;;5024203;28;20029;-76
2022/12/19 07:15:54;;;;;;;7.28;3.55;;;;;;;;;;5033160;28;20158;-75
2022/12/19 07:18:20;;;;;;;9.40;4.18;;;;;;;;;;5027023;28;20035;-75
2022/12/19 07:20:46;;;;;;;8.88;3.78;;;;;;;;;;5029102;28;20020;-76
2022/12/19 07:23:14;;;;;;;8.98;3.85;;;;;;;;;;5024616;28;20091;-73
2022/12/19 07:25:40;;;;;;;8.30;3.97;;;;;;;;;;5024717;28;20060;-77
2022/12/19 07:28:06;;;;;;;7.30;3.58;;;;;;;;;;5028277;28;20443;-76
2022/12/19 07:30:32;;;;;;;12.90;4.10;;;;;;;;;;5027944;28;20053;-76
2022/12/19 07:32:58;;;;;;;9.02;4.40;;;;;;;;;;5038005;28;20040;-75
2022/12/19 07:35:24;;;;;;;7.72;3.75;;;;;;;;;;5034979;28;20034;-76
2022/12/19 07:37:50;;;;;;;8.13;3.55;;;;;;;;;;5026878;28;20028;-72
2022/12/19 07:40:17;;;;;;;7.53;3.97;;;;;;;;;;5027399;28;20040;-73
2022/12/19 07:42:43;;;;;;;7.50;3.95;;;;;;;;;;5025011;28;20022;-77
2022/12/19 07:45:10;;;;;;;8.85;3.80;;;;;;;;;;5030310;28;20695;-76
2022/12/19 07:47:36;;;;;;;10.27;3.97;;;;;;;;;;5029749;28;20043;-76
2022/12/19 07:50:02;;;;;;;8.18;4.03;;;;;;;;;;5027462;28;20029;-76
2022/12/19 07:52:28;;;;;;;7.68;3.88;;;;;;;;;;5028106;28;20141;-77
2022/12/19 07:54:54;;;;;;;7.93;3.80;;;;;;;;;;5026274;28;20116;-76
2022/12/19 07:57:20;;;;;;;7.07;3.85;;;;;;;;;;5031853;28;20029;-78
2022/12/19 07:59:46;;;;;;;7.80;3.78;;;;;;;;;;5027938;28;20025;-77
2022/12/19 08:02:12;;;;;;;8.23;4.25;;;;;;;;;;5028082;28;20424;-76
2022/12/19 08:04:38;;;;;;;8.20;3.58;;;;;;;;;;5027668;28;20095;-76
2022/12/19 08:07:04;;;;;;;8.30;3.67;;;;;;;;;;5028632;28;20027;-77
2022/12/19 08:09:30;;;;;;;6.35;3.53;;;;;;;;;;5037197;28;20116;-76
2022/12/19 08:11:57;;;;;;;7.75;3.63;;;;;;;;;;5022432;28;20075;-75
2022/12/19 08:14:23;;;;;;;8.00;3.85;;;;;;;;;;5026663;28;20034;-75
2022/12/19 08:16:49;;;;;;;7.53;3.83;;;;;;;;;;5032164;28;20025;-75
2022/12/19 08:19:15;;;;;;;8.15;3.67;;;;;;;;;;5031712;28;20029;-75
2022/12/19 08:21:41;;;;;;;7.00;3.63;;;;;;;;;;5024508;28;20032;-77
2022/12/19 08:24:07;;;;;;;6.80;3.60;;;;;;;;;;5022964;28;20034;-76
2022/12/19 08:26:33;;;;;;;8.63;4.03;;;;;;;;;;5023478;28;20301;-77
2022/12/19 08:28:59;;;;;;;7.32;4.15;;;;;;;;;;5029161;28;20476;-75
2022/12/19 08:31:31;;;;;;;7.25;3.80;;;;;;;;;;5035006;28;20050;-76
2022/12/19 08:33:57;;;;;;;11.15;4.00;;;;;;;;;;5028612;28;20035;-77
2022/12/19 08:36:23;;;;;;;12.88;3.85;;;;;;;;;;5036594;28;20029;-76
2022/12/19 08:38:50;;;;;;;9.70;3.72;;;;;;;;;;5031985;28;20018;-76
2022/12/19 08:41:16;;;;;;;6.47;3.50;;;;;;;;;;5031560;28;20449;-76
2022/12/19 08:43:42;;;;;;;10.55;3.58;;;;;;;;;;5027180;28;20101;-76
2022/12/19 08:46:11;;;;;;;8.73;3.70;;;;;;;;;;5035979;28;20083;-77
2022/12/19 08:48:37;;;;;;;7.30;3.58;;;;;;;;;;5028891;28;20418;-76
2022/12/19 08:51:04;;;;;;;8.48;4.40;;;;;;;;;;5030363;28;20025;-76
2022/12/19 08:53:32;;;;;;;8.65;3.92;;;;;;;;;;5036723;28;20457;-76
2022/12/19 08:55:58;;;;;;;9.15;4.15;;;;;;;;;;5039336;28;20075;-76
2022/12/19 08:58:25;;;;;;;8.23;4.13;;;;;;;;;;5037152;28;20032;-76
2022/12/19 09:00:54;;;;;;;6.85;3.38;;;;;;;;;;5039163;28;20464;-76
2022/12/19 09:03:22;;;;;;;7.10;3.75;;;;;;;;;;5034391;28;20045;-76
2022/12/19 09:05:56;;;;;;;6.75;3.53;;;;;;;;;;5037165;28;20033;-76
2022/12/19 09:08:22;;;;;;;8.73;3.88;;;;;;;;;;5031866;28;20068;-76
2022/12/19 09:10:48;;;;;;;9.10;3.40;;;;;;;;;;5032489;28;20403;-76
2022/12/19 09:13:14;;;;;;;7.65;3.80;;;;;;;;;;5043626;28;20037;-76
2022/12/19 09:15:40;;;;;;;6.95;3.35;;;;;;;;;;5035821;28;20026;-76
2022/12/19 09:18:06;;;;;;;6.53;3.35;;;;;;;;;;5026448;28;20060;-79
2022/12/19 09:20:32;;;;;;;10.40;4.15;;;;;;;;;;5024122;28;20216;-74
2022/12/19 09:22:58;;;;;;;7.13;3.40;;;;;;;;;;5034894;28;20079;-75
2022/12/19 09:25:24;;;;;;;12.88;4.60;;;;;;;;;;5037778;28;20060;-76
2022/12/19 09:27:50;;;;;;;9.75;4.40;;;;;;;;;;5035878;28;22086;-75
2022/12/19 09:30:16;;;;;;;10.25;3.50;;;;;;;;;;5024709;28;20045;-75
2022/12/19 09:32:42;;;;;;;8.38;3.75;;;;;;;;;;5043227;28;20090;-76
2022/12/19 09:35:08;;;;;;;8.32;3.80;;;;;;;;;;5038731;28;21853;-76
2022/12/19 09:37:34;;;;;;;7.82;4.10;;;;;;;;;;5029605;28;20041;-75
2022/12/19 09:40:00;;;;;;;8.45;3.72;;;;;;;;;;5031308;28;20066;-75
2022/12/19 09:42:43;;;;;;;7.63;3.50;;;;;;;;;;5025922;28;20032;-77
2022/12/19 09:45:28;;;;;;;9.15;3.53;;;;;;;;;;5026294;28;20045;-76
2022/12/19 09:47:57;;;;;;;10.18;3.78;;;;;;;;;;5023768;28;20017;-76
2022/12/19 09:50:28;;;;;;;7.05;3.65;;;;;;;;;;5025785;28;20025;-76
2022/12/19 09:52:59;;;;;;;9.90;4.22;;;;;;;;;;5024298;28;20038;-76
2022/12/19 09:55:25;;;;;;;;;;;;;;;;;;5028406;28;20037;-75
2022/12/19 09:57:51;;;;;;;9.57;4.32;;;;;;;;;;5035448;28;20443;-76
2022/12/19 10:00:19;;;;;;;8.88;4.30;;;;;;;;;;5027552;28;20036;-77
2022/12/19 10:02:50;;;;;;;11.15;4.55;;;;;;;;;;5029689;28;20025;-77
2022/12/19 10:05:24;;;;;;;9.30;4.47;;;;;;;;;;5026654;28;20414;-76
2022/12/19 10:07:50;;;;;;;10.40;4.30;;;;;;;;;;5024755;28;20048;-76
2022/12/19 10:10:17;;;;;;;8.90;4.15;;;;;;;;;;5028141;28;20029;-77
2022/12/19 10:12:51;;;;;;;9.30;3.97;;;;;;;;;;5023105;28;20029;-75
2022/12/19 10:15:26;;;;;;;13.13;3.63;;;;;;;;;;5030324;28;20450;-84
2022/12/19 10:17:52;;;;;;;6.50;3.80;;;;;;;;;;5026416;28;20021;-77
2022/12/19 10:20:34;;;;;;;7.65;4.15;;;;;;;;;;5024100;28;20026;-77
2022/12/19 10:23:00;;;;;;;;;;;;;;;;;;5021713;28;20024;-76
2022/12/19 10:25:45;;;;;;;10.77;3.85;;;;;;;;;;5022959;28;20346;-78
2022/12/19 10:28:11;;;;;;;10.68;4.22;;;;;;;;;;5023026;28;20057;-78
2022/12/19 10:30:43;;;;;;;8.27;4.20;;;;;;;;;;5019659;28;20439;-76
2022/12/19 10:33:23;;;;;;;7.03;3.78;;;;;;;;;;5022825;28;20508;-76
2022/12/19 10:35:53;;;;;;;7.60;3.60;;;;;;;;;;5026973;28;20038;-76
2022/12/19 10:38:37;;;;;;;8.55;4.22;;;;;;;;;;5024937;28;20034;-76
2022/12/19 10:41:18;;;;;;;7.45;3.83;;;;;;;;;;5022688;28;20524;-77
2022/12/19 10:43:47;;;;;;;8.23;3.87;;;;;;;;;;5023176;28;20031;-77
2022/12/19 10:46:16;;;;;;;10.75;4.25;;;;;;;;;;5025753;28;20490;-75
2022/12/19 10:48:42;;;;;;;10.05;4.32;;;;;;;;;;5023070;28;20037;-77
2022/12/19 10:51:12;;;;;;;13.38;4.00;;;;;;;;;;5022975;28;20114;-77
2022/12/19 10:53:38;;;;;;;10.75;4.50;;;;;;;;;;5025847;28;20408;-77
2022/12/19 10:56:24;;;;;;;11.20;4.03;;;;;;;;;;5025632;28;20071;-77
2022/12/19 10:58:56;;;;;;;9.50;3.70;;;;;;;;;;5025216;28;20026;-80
2022/12/19 11:01:22;;;;;;;7.65;3.95;;;;;;;;;;5020562;28;20030;-77
2022/12/19 11:03:51;;;;;;;7.82;3.60;;;;;;;;;;5024659;28;20032;-78
2022/12/19 11:06:36;;;;;;;8.93;3.72;;;;;;;;;;5025072;28;20485;-79
2022/12/19 11:09:22;;;;;;;7.00;3.83;;;;;;;;;;5024501;28;20079;-78
2022/12/19 11:11:55;;;;;;;8.52;3.83;;;;;;;;;;5023900;28;20037;-77
2022/12/19 11:14:23;;;;;;;9.45;3.60;;;;;;;;;;5010053;28;20044;-77
2022/12/19 11:16:49;;;;;;;7.68;3.90;;;;;;;;;;5017050;28;20030;-77
2022/12/19 11:19:26;;;;;;;9.68;4.03;;;;;;;;;;5020156;28;20578;-77
2022/12/19 11:21:53;;;;;;;6.78;3.78;;;;;;;;;;5024110;28;20361;-77
2022/12/19 11:24:28;;;;;;;6.65;3.35;;;;;;;;;;5015919;28;20116;-77
2022/12/19 11:26:54;;;;;;;7.45;3.80;;;;;;;;;;5019703;28;20037;-78
2022/12/19 11:29:35;;;;;;;10.00;3.72;;;;;;;;;;5018254;28;20500;-78
2022/12/19 11:32:02;;;;;;;7.03;3.55;;;;;;;;;;5019064;28;21343;-77
2022/12/19 11:34:30;;;;;;;7.78;3.55;;;;;;;;;;5020975;28;20049;-77
2022/12/19 11:37:02;;;;;;;7.43;3.53;;;;;;;;;;5023021;28;20044;-77
2022/12/19 11:39:39;;;;;;;7.20;3.42;;;;;;;;;;5022429;28;20084;-77
2022/12/19 11:42:29;;;;;;;7.30;3.90;;;;;;;;;;5017005;28;20037;-77
2022/12/19 11:44:57;;;;;;;7.53;3.78;;;;;;;;;;5014717;28;20045;-77
2022/12/19 11:47:32;;;;;;;8.35;3.63;;;;;;;;;;5015639;28;20025;-78
2022/12/19 11:50:01;;;;;;;8.43;3.70;;;;;;;;;;5019259;28;20582;-77
2022/12/19 11:52:40;;;;;;;7.93;3.85;;;;;;;;;;5023732;28;20051;-83
2022/12/19 11:55:17;;;;;;;9.20;3.95;;;;;;;;;;5020954;28;20026;-77
2022/12/19 11:57:44;;;;;;;9.60;3.97;;;;;;;;;;5019897;28;20119;-78
2022/12/19 12:00:15;;;;;;;5.75;3.47;;;;;;;;;;5008442;28;20391;-78
2022/12/19 12:03:10;;;;;;;7.03;3.38;;;;;;;;;;5018730;28;20044;-77
2022/12/19 12:05:43;;;;;;;6.97;3.30;;;;;;;;;;5014473;28;20044;-75
2022/12/19 12:08:30;;;;;;;7.72;3.50;;;;;;;;;;5023350;28;20064;-78
2022/12/19 12:11:00;;;;;;;6.25;3.65;;;;;;;;;;5019647;28;20072;-78
2022/12/19 12:13:32;;;;;;;8.00;3.30;;;;;;;;;;5022660;28;20029;-79
2022/12/19 12:16:03;;;;;;;10.32;2.95;;;;;;;;;;5021558;28;21262;-78
2022/12/19 12:18:35;;;;;;;6.10;3.05;;;;;;;;;;5011365;28;20029;-78
2022/12/19 12:21:27;;;;;;;7.68;4.18;;;;;;;;;;5006398;28;20105;-78
2022/12/19 12:24:16;;;;;;;7.13;3.25;;;;;;;;;;5010842;28;20046;-78
2022/12/19 12:26:49;;;;;;;5.03;2.95;;;;;;;;;;5016674;28;20658;-78
2022/12/19 12:29:22;;;;;;;7.55;3.58;;;;;;;;;;5019574;28;20033;-80
2022/12/19 12:32:08;;;;;;;6.13;3.05;;;;;;;;;;5022606;28;20045;-77
2022/12/19 12:34:45;;;;;;;5.50;3.20;;;;;;;;;;5023330;28;20041;-78
2022/12/19 12:37:18;;;;;;;8.07;3.28;;;;;;;;;;5023863;28;20507;-80
2022/12/19 12:39:44;;;;;;;7.10;3.55;;;;;;;;;;5018556;28;20031;-77
2022/12/19 12:42:20;;;;;;;5.88;3.03;;;;;;;;;;5024521;28;20467;-82
2022/12/19 12:44:47;;;;;;;7.75;3.65;;;;;;;;;;5022111;28;20112;-82
2022/12/19 12:47:19;;;;;;;5.95;3.08;;;;;;;;;;5023804;28;20565;-79
2022/12/19 12:49:45;;;;;;;;;;;;;;;;;;5024550;28;20472;-80
2022/12/19 12:52:14;;;;;;;7.13;3.28;;;;;;;;;;5025521;28;19912;-79
2022/12/19 12:54:42;;;;;;;7.18;3.47;;;;;;;;;;5022395;28;20018;-85
2022/12/19 12:57:32;;;;;;;7.82;3.60;;;;;;;;;;5019245;28;20022;-81
2022/12/19 13:00:14;;;;;;;8.70;3.57;;;;;;;;;;5017019;28;20163;-76
2022/12/19 13:02:40;;;;;;;7.22;3.35;;;;;;;;;;5024045;28;20040;-85
2022/12/19 13:05:36;;;;;;;6.93;3.50;;;;;;;;;;5023846;28;20088;-85
2022/12/19 13:08:21;;;;;;;7.90;2.83;;;;;;;;;;5023996;28;20507;-85
2022/12/19 13:10:55;;;;;;;5.93;2.72;;;;;;;;;;5025319;28;20520;-84
2022/12/19 13:13:41;;;;;;;6.47;3.08;;;;;;;;;;5021286;28;20032;-84
2022/12/19 13:16:25;;;;;;;6.90;3.65;;;;;;;;;;5022332;28;20389;-89
2022/12/19 13:19:11;;;;;;;6.38;3.17;;;;;;;;;;5022398;28;20493;-82
2022/12/19 13:21:56;;;;;;;5.10;3.00;;;;;;;;;;5021361;28;20057;-81
2022/12/19 13:24:22;;;;;;;5.45;3.00;;;;;;;;;;5012820;28;20033;-76
2022/12/19 13:26:51;;;;;;;4.43;2.72;;;;;;;;;;5007058;28;20033;-86
2022/12/19 13:29:31;;;;;;;5.57;2.95;;;;;;;;;;5011783;28;20041;-85
2022/12/19 13:32:07;;;;;;;6.25;2.75;;;;;;;;;;5014280;28;20067;-84
2022/12/19 13:34:36;;;;;;;5.88;3.22;;;;;;;;;;5016727;28;20029;-84
2022/12/19 13:37:20;;;;;;;5.72;3.05;;;;;;;;;;5015876;28;20112;-86
2022/12/19 13:39:50;;;;;;;6.32;2.47;;;;;;;;;;5020127;28;20112;-85
2022/12/19 13:45:04;;;;;;;9.48;3.30;;;;;;;;;;5017745;28;20512;-87
2022/12/19 13:47:33;;;;;;;7.15;3.17;;;;;;;;;;5021478;28;20035;-88
2022/12/19 13:50:00;;;;;;;6.03;2.50;;;;;;;;;;5025157;28;20036;-88
2022/12/19 13:52:26;;;;;;;6.35;3.00;;;;;;;;;;5024226;28;20340;-88
2022/12/19 13:54:56;;;;;;;5.28;3.13;;;;;;;;;;5017578;28;20021;-84
2022/12/19 13:57:23;;;;;;;4.82;2.80;;;;;;;;;;5023258;28;20534;-86
2022/12/19 13:59:50;;;;;;;6.13;2.80;;;;;;;;;;5013860;28;20546;-87
2022/12/19 14:02:19;;;;;;;8.98;3.00;;;;;;;;;;5008672;28;20033;-79
2022/12/19 14:04:45;;;;;;;7.32;3.03;;;;;;;;;;5020241;28;20039;-83
2022/12/19 14:07:25;;;;;;;5.07;3.22;;;;;;;;;;5017314;28;20026;-76
2022/12/19 14:09:52;;;;;;;6.88;3.25;;;;;;;;;;5017400;28;20056;-82
2022/12/19 14:15:20;;;;;;;5.43;2.92;;;;;;;;;;5016556;28;20084;-81
2022/12/19 14:17:47;;;;;;;6.28;3.38;;;;;;;;;;5031291;28;20029;-80
2022/12/19 14:20:18;;;;;;;6.15;3.00;;;;;;;;;;5007507;28;20033;-83
2022/12/19 14:22:44;;;;;;;4.78;2.85;;;;;;;;;;5008124;28;20048;-78
2022/12/19 14:25:12;;;;;;;5.82;3.00;;;;;;;;;;5012293;28;20045;-81
2022/12/19 14:27:40;;;;;;;5.85;3.17;;;;;;;;;;5015872;28;20933;-80
2022/12/19 14:30:14;;;;;;;5.15;3.13;;;;;;;;;;5014319;28;20217;-80
2022/12/19 14:32:40;;;;;;;5.60;2.85;;;;;;;;;;5008876;28;20033;-80
2022/12/19 14:35:08;;;;;;;7.35;2.90;;;;;;;;;;5016779;28;20032;-87
2022/12/19 14:37:38;;;;;;;6.55;2.67;;;;;;;;;;5010183;28;20026;-80
2022/12/19 14:40:14;;;;;;;5.95;2.85;;;;;;;;;;5019174;28;20350;-88
2022/12/19 14:45:31;;;;;;;9.13;3.10;;;;;;;;;;5016596;28;20052;-80
2022/12/19 14:47:57;;;;;;;5.88;3.03;;;;;;;;;;5016482;28;20358;-79
2022/12/19 14:50:30;;;;;;;5.80;2.95;;;;;;;;;;5012225;28;20048;-81
2022/12/19 14:53:15;;;;;;;4.80;2.80;;;;;;;;;;5020439;28;20033;-77
2022/12/19 14:55:41;;;;;;;6.45;3.40;;;;;;;;;;5010638;28;20026;-80
2022/12/19 14:58:09;;;;;;;5.05;2.90;;;;;;;;;;5016062;28;20083;-76
2022/12/19 15:00:49;;;;;;;14.43;3.15;;;;;;;;;;5016792;28;20044;-74
2022/12/19 15:03:31;;;;;;;6.57;3.33;;;;;;;;;;5013403;28;20051;-82
2022/12/19 15:06:17;;;;;;;6.05;2.80;;;;;;;;;;5014560;28;20033;-78
2022/12/19 15:08:43;;;;;;;4.93;2.95;;;;;;;;;;5010654;28;20037;-78
2022/12/19 15:14:10;;;;;;;3.83;2.42;;;;;;;;;;5018721;28;20118;-79
2022/12/19 15:16:36;;;;;;;8.18;3.28;;;;;;;;;;5011112;28;20120;-78